METAR Data
IDs: Format: Raw Decoded Include TAF

Data at: 0429 UTC 21 Sep 2018

METAR for:K6B9 (Skaneateles Arpt, NY, US)
Text:K6B9 210415Z AUTO VRB06KT 9SM CLR 19/17 A3012 RMK AO2
Temperature: 19.0°C ( 66°F)
Dewpoint: 17.0°C ( 63°F) [RH = 88%]
Pressure (altimeter):30.12 inches Hg (1020.1 mb)
Winds:variable direction winds at 7 MPH (6 knots; 3.1 m/s)
Visibility: 9 sm ( 14 km)
Ceiling:at least 12,000 feet AGL
Clouds:sky clear below 12,000 feet AGL
QC Flag:automated observation with no human augmentation
Text:K6B9 210355Z AUTO VRB03KT 9SM SCT070 SCT080 SCT100 19/17 A3012 RMK AO2
Temperature: 19.0°C ( 66°F)
Dewpoint: 17.0°C ( 63°F) [RH = 88%]
Pressure (altimeter):30.12 inches Hg (1020.1 mb)
Winds:variable direction winds at 3 MPH (3 knots; 1.5 m/s)
Visibility: 9 sm ( 14 km)
Ceiling:at least 12,000 feet AGL
Clouds: scattered clouds at 7000 feet AGL, scattered clouds at 8000 feet AGL, scattered clouds at 10000 feet AGL
QC Flag:automated observation with no human augmentation
Text:K6B9 210335Z AUTO VRB04KT 8SM BKN070 OVC085 20/17 A3013 RMK AO2
Temperature: 20.0°C ( 68°F)
Dewpoint: 17.0°C ( 63°F) [RH = 83%]
Pressure (altimeter):30.13 inches Hg (1020.4 mb)
Winds:variable direction winds at 5 MPH (4 knots; 2.1 m/s)
Visibility: 8 sm ( 13 km)
Ceiling:7000 feet AGL
Clouds: broken clouds at 7000 feet AGL, overcast cloud deck at 8500 feet AGL
QC Flag:automated observation with no human augmentation
Text:K6B9 210315Z AUTO VRB04G11KT 10SM FEW065 BKN080 BKN095 20/17 A3013 RMK AO2
Temperature: 20.0°C ( 68°F)
Dewpoint: 17.0°C ( 63°F) [RH = 83%]
Pressure (altimeter):30.13 inches Hg (1020.4 mb)
Winds:variable direction winds at 5 MPH (4 knots; 2.1 m/s) gusting to 13 MPH (11 knots; 5.7 m/s)
Visibility:10 or more sm (16+ km)
Ceiling:8000 feet AGL
Clouds: few clouds at 6500 feet AGL, broken clouds at 8000 feet AGL, broken clouds at 9500 feet AGL
QC Flag:automated observation with no human augmentation
Text:K6B9 210255Z AUTO VRB04KT 9SM SCT070 BKN085 BKN110 20/17 A3014 RMK AO2
Temperature: 20.0°C ( 68°F)
Dewpoint: 17.0°C ( 63°F) [RH = 83%]
Pressure (altimeter):30.14 inches Hg (1020.7 mb)
Winds:variable direction winds at 5 MPH (4 knots; 2.1 m/s)
Visibility: 9 sm ( 14 km)
Ceiling:8500 feet AGL
Clouds: scattered clouds at 7000 feet AGL, broken clouds at 8500 feet AGL, broken clouds at 11000 feet AGL
QC Flag:automated observation with no human augmentation
Text:K6B9 210235Z AUTO VRB03KT 8SM SCT038 BKN070 OVC120 19/17 A3015 RMK AO2
Temperature: 19.0°C ( 66°F)
Dewpoint: 17.0°C ( 63°F) [RH = 88%]
Pressure (altimeter):30.15 inches Hg (1021.1 mb)
Winds:variable direction winds at 3 MPH (3 knots; 1.5 m/s)
Visibility: 8 sm ( 13 km)
Ceiling:7000 feet AGL
Clouds: scattered clouds at 3800 feet AGL, broken clouds at 7000 feet AGL, overcast cloud deck at 12000 feet AGL
QC Flag:automated observation with no human augmentation
Text:K6B9 210215Z AUTO 00000KT 6SM BR BKN038 OVC095 19/17 A3015 RMK AO2
Temperature: 19.0°C ( 66°F)
Dewpoint: 17.0°C ( 63°F) [RH = 88%]
Pressure (altimeter):30.15 inches Hg (1021.1 mb)
Winds:calm
Visibility: 6 sm ( 10 km)
Ceiling:3800 feet AGL
Clouds: broken clouds at 3800 feet AGL, overcast cloud deck at 9500 feet AGL
Weather:BR (mist)
QC Flag:automated observation with no human augmentation
Text:K6B9 210155Z AUTO 00000KT 8SM BKN039 BKN095 OVC120 17/16 A3015 RMK AO2
Temperature: 17.0°C ( 63°F)
Dewpoint: 16.0°C ( 61°F) [RH = 94%]
Pressure (altimeter):30.15 inches Hg (1021.1 mb)
Winds:calm
Visibility: 8 sm ( 13 km)
Ceiling:3900 feet AGL
Clouds: broken clouds at 3900 feet AGL, broken clouds at 9500 feet AGL, overcast cloud deck at 12000 feet AGL
QC Flag:automated observation with no human augmentation
Text:K6B9 210135Z AUTO 00000KT 5SM BR BKN039 BKN070 OVC110 18/16 A3016 RMK AO2
Temperature: 18.0°C ( 64°F)
Dewpoint: 16.0°C ( 61°F) [RH = 88%]
Pressure (altimeter):30.16 inches Hg (1021.4 mb)
Winds:calm
Visibility: 5 sm ( 8 km)
Ceiling:3900 feet AGL
Clouds: broken clouds at 3900 feet AGL, broken clouds at 7000 feet AGL, overcast cloud deck at 11000 feet AGL
Weather:BR (mist)
QC Flag:automated observation with no human augmentation
Text:K6B9 210115Z AUTO 00000KT 6SM HZ FEW038 BKN110 19/16 A3016 RMK AO2
Temperature: 19.0°C ( 66°F)
Dewpoint: 16.0°C ( 61°F) [RH = 83%]
Pressure (altimeter):30.16 inches Hg (1021.4 mb)
Winds:calm
Visibility: 6 sm ( 10 km)
Ceiling:11000 feet AGL
Clouds: few clouds at 3800 feet AGL, broken clouds at 11000 feet AGL
Weather:HZ (haze)
QC Flag:automated observation with no human augmentation
Text:K6B9 210055Z AUTO 00000KT 5SM BR FEW040 FEW070 SCT110 18/16 A3016 RMK AO2
Temperature: 18.0°C ( 64°F)
Dewpoint: 16.0°C ( 61°F) [RH = 88%]
Pressure (altimeter):30.16 inches Hg (1021.4 mb)
Winds:calm
Visibility: 5 sm ( 8 km)
Ceiling:at least 12,000 feet AGL
Clouds: few clouds at 4000 feet AGL, few clouds at 7000 feet AGL, scattered clouds at 11000 feet AGL
Weather:BR (mist)
QC Flag:automated observation with no human augmentation
Text:K6B9 210035Z AUTO 00000KT 4SM HZ BKN120 19/16 A3016 RMK AO2
Temperature: 19.0°C ( 66°F)
Dewpoint: 16.0°C ( 61°F) [RH = 83%]
Pressure (altimeter):30.16 inches Hg (1021.4 mb)
Winds:calm
Visibility: 4 sm ( 6 km)
Ceiling:12000 feet AGL
Clouds: broken clouds at 12000 feet AGL
Weather:HZ (haze)
QC Flag:automated observation with no human augmentation
Text:K6B9 210015Z AUTO 00000KT 4SM HZ SCT120 19/16 A3015 RMK AO2
Temperature: 19.0°C ( 66°F)
Dewpoint: 16.0°C ( 61°F) [RH = 83%]
Pressure (altimeter):30.15 inches Hg (1021.1 mb)
Winds:calm
Visibility: 4 sm ( 6 km)
Ceiling:at least 12,000 feet AGL
Clouds: scattered clouds at 12000 feet AGL
Weather:HZ (haze)
QC Flag:automated observation with no human augmentation
Text:K6B9 202355Z AUTO 00000KT 4SM HZ FEW110 19/16 A3015 RMK AO2
Temperature: 19.0°C ( 66°F)
Dewpoint: 16.0°C ( 61°F) [RH = 83%]
Pressure (altimeter):30.15 inches Hg (1021.1 mb)
Winds:calm
Visibility: 4 sm ( 6 km)
Ceiling:at least 12,000 feet AGL
Clouds: few clouds at 11000 feet AGL
Weather:HZ (haze)
QC Flag:automated observation with no human augmentation
Text:K6B9 202335Z AUTO 09003KT 4SM HZ FEW029 SCT034 BKN120 19/16 A3015 RMK AO2
Temperature: 19.0°C ( 66°F)
Dewpoint: 16.0°C ( 61°F) [RH = 83%]
Pressure (altimeter):30.15 inches Hg (1021.1 mb)
Winds:from the E (90 degrees) at 3 MPH (3 knots; 1.5 m/s)
Visibility: 4 sm ( 6 km)
Ceiling:12000 feet AGL
Clouds: few clouds at 2900 feet AGL, scattered clouds at 3400 feet AGL, broken clouds at 12000 feet AGL
Weather:HZ (haze)
QC Flag:automated observation with no human augmentation
Text:K6B9 202315Z AUTO VRB04KT 2SM HZ BKN029 BKN080 OVC120 19/15 A3016 RMK AO2
Temperature: 19.0°C ( 66°F)
Dewpoint: 15.0°C ( 59°F) [RH = 78%]
Pressure (altimeter):30.16 inches Hg (1021.4 mb)
Winds:variable direction winds at 5 MPH (4 knots; 2.1 m/s)
Visibility: 2.00 sm ( 3.22 km)
Ceiling:2900 feet AGL
Clouds: broken clouds at 2900 feet AGL, broken clouds at 8000 feet AGL, overcast cloud deck at 12000 feet AGL
Weather:HZ (haze)
QC Flag:automated observation with no human augmentation
Text:K6B9 202255Z AUTO 00000KT 2SM HZ OVC120 20/16 A3016 RMK AO2
Temperature: 20.0°C ( 68°F)
Dewpoint: 16.0°C ( 61°F) [RH = 78%]
Pressure (altimeter):30.16 inches Hg (1021.4 mb)
Winds:calm
Visibility: 2.00 sm ( 3.22 km)
Ceiling:12000 feet AGL
Clouds: overcast cloud deck at 12000 feet AGL
Weather:HZ (haze)
QC Flag:automated observation with no human augmentation
Text:K6B9 202235Z AUTO 03003KT 2SM HZ FEW035 BKN120 20/16 A3016 RMK AO2
Temperature: 20.0°C ( 68°F)
Dewpoint: 16.0°C ( 61°F) [RH = 78%]
Pressure (altimeter):30.16 inches Hg (1021.4 mb)
Winds:from the NNE (30 degrees) at 3 MPH (3 knots; 1.5 m/s)
Visibility: 2.00 sm ( 3.22 km)
Ceiling:12000 feet AGL
Clouds: few clouds at 3500 feet AGL, broken clouds at 12000 feet AGL
Weather:HZ (haze)
QC Flag:automated observation with no human augmentation
Text:K6B9 202215Z AUTO 00000KT 2 1/2SM HZ FEW035 FEW120 21/16 A3015 RMK AO2 VIS 2V4
Temperature: 21.0°C ( 70°F)
Dewpoint: 16.0°C ( 61°F) [RH = 73%]
Pressure (altimeter):30.15 inches Hg (1021.1 mb)
Winds:calm
Visibility: 2.50 sm ( 4.02 km)
Ceiling:at least 12,000 feet AGL
Clouds: few clouds at 3500 feet AGL, few clouds at 12000 feet AGL
Weather:HZ (haze)
QC Flag:automated observation with no human augmentation
Text:K6B9 202155Z AUTO 00000KT 2 1/2SM HZ FEW035 21/16 A3015 RMK AO2
Temperature: 21.0°C ( 70°F)
Dewpoint: 16.0°C ( 61°F) [RH = 73%]
Pressure (altimeter):30.15 inches Hg (1021.1 mb)
Winds:calm
Visibility: 2.50 sm ( 4.02 km)
Ceiling:at least 12,000 feet AGL
Clouds: few clouds at 3500 feet AGL
Weather:HZ (haze)
QC Flag:automated observation with no human augmentation
Text:K6B9 202135Z AUTO 00000KT 2SM HZ CLR 21/16 A3016 RMK AO2
Temperature: 21.0°C ( 70°F)
Dewpoint: 16.0°C ( 61°F) [RH = 73%]
Pressure (altimeter):30.16 inches Hg (1021.4 mb)
Winds:calm
Visibility: 2.00 sm ( 3.22 km)
Ceiling:at least 12,000 feet AGL
Clouds:sky clear below 12,000 feet AGL
Weather:HZ (haze)
QC Flag:automated observation with no human augmentation
Text:K6B9 202115Z AUTO 00000KT 2 1/2SM HZ BKN036 21/15 A3015 RMK AO2
Temperature: 21.0°C ( 70°F)
Dewpoint: 15.0°C ( 59°F) [RH = 69%]
Pressure (altimeter):30.15 inches Hg (1021.1 mb)
Winds:calm
Visibility: 2.50 sm ( 4.02 km)
Ceiling:3600 feet AGL
Clouds: broken clouds at 3600 feet AGL
Weather:HZ (haze)
QC Flag:automated observation with no human augmentation
Text:K6B9 202055Z AUTO 00000KT 2SM HZ OVC036 22/14 A3016 RMK AO2
Temperature: 22.0°C ( 72°F)
Dewpoint: 14.0°C ( 57°F) [RH = 60%]
Pressure (altimeter):30.16 inches Hg (1021.4 mb)
Winds:calm
Visibility: 2.00 sm ( 3.22 km)
Ceiling:3600 feet AGL
Clouds: overcast cloud deck at 3600 feet AGL
Weather:HZ (haze)
QC Flag:automated observation with no human augmentation
Text:K6B9 202035Z AUTO 00000KT 2SM HZ OVC035 21/14 A3017 RMK AO2
Temperature: 21.0°C ( 70°F)
Dewpoint: 14.0°C ( 57°F) [RH = 64%]
Pressure (altimeter):30.17 inches Hg (1021.8 mb)
Winds:calm
Visibility: 2.00 sm ( 3.22 km)
Ceiling:3500 feet AGL
Clouds: overcast cloud deck at 3500 feet AGL
Weather:HZ (haze)
QC Flag:automated observation with no human augmentation
Text:K6B9 202015Z AUTO 00000KT 6SM HZ BKN036 21/14 A3017 RMK AO2
Temperature: 21.0°C ( 70°F)
Dewpoint: 14.0°C ( 57°F) [RH = 64%]
Pressure (altimeter):30.17 inches Hg (1021.8 mb)
Winds:calm
Visibility: 6 sm ( 10 km)
Ceiling:3600 feet AGL
Clouds: broken clouds at 3600 feet AGL
Weather:HZ (haze)
QC Flag:automated observation with no human augmentation
Text:K6B9 201955Z AUTO VRB03KT 10SM CLR 22/14 A3017 RMK AO2
Temperature: 22.0°C ( 72°F)
Dewpoint: 14.0°C ( 57°F) [RH = 60%]
Pressure (altimeter):30.17 inches Hg (1021.8 mb)
Winds:variable direction winds at 3 MPH (3 knots; 1.5 m/s)
Visibility:10 or more sm (16+ km)
Ceiling:at least 12,000 feet AGL
Clouds:sky clear below 12,000 feet AGL
QC Flag:automated observation with no human augmentation
Text:K6B9 201935Z AUTO VRB03KT 10SM FEW110 22/14 A3016 RMK AO2
Temperature: 22.0°C ( 72°F)
Dewpoint: 14.0°C ( 57°F) [RH = 60%]
Pressure (altimeter):30.16 inches Hg (1021.4 mb)
Winds:variable direction winds at 3 MPH (3 knots; 1.5 m/s)
Visibility:10 or more sm (16+ km)
Ceiling:at least 12,000 feet AGL
Clouds: few clouds at 11000 feet AGL
QC Flag:automated observation with no human augmentation
Text:K6B9 201915Z AUTO 00000KT 10SM SCT110 22/14 A3017 RMK AO2
Temperature: 22.0°C ( 72°F)
Dewpoint: 14.0°C ( 57°F) [RH = 60%]
Pressure (altimeter):30.17 inches Hg (1021.8 mb)
Winds:calm
Visibility:10 or more sm (16+ km)
Ceiling:at least 12,000 feet AGL
Clouds: scattered clouds at 11000 feet AGL
QC Flag:automated observation with no human augmentation
Text:K6B9 201855Z AUTO 00000KT 10SM CLR 21/13 A3017 RMK AO2
Temperature: 21.0°C ( 70°F)
Dewpoint: 13.0°C ( 55°F) [RH = 60%]
Pressure (altimeter):30.17 inches Hg (1021.8 mb)
Winds:calm
Visibility:10 or more sm (16+ km)
Ceiling:at least 12,000 feet AGL
Clouds:sky clear below 12,000 feet AGL
QC Flag:automated observation with no human augmentation
Text:K6B9 201835Z AUTO 11004KT 10SM CLR 21/14 A3018 RMK AO2
Temperature: 21.0°C ( 70°F)
Dewpoint: 14.0°C ( 57°F) [RH = 64%]
Pressure (altimeter):30.18 inches Hg (1022.1 mb)
Winds:from the ESE (110 degrees) at 5 MPH (4 knots; 2.1 m/s)
Visibility:10 or more sm (16+ km)
Ceiling:at least 12,000 feet AGL
Clouds:sky clear below 12,000 feet AGL
QC Flag:automated observation with no human augmentation
Text:K6B9 201815Z AUTO 00000KT 10SM CLR 20/13 A3018 RMK AO2
Temperature: 20.0°C ( 68°F)
Dewpoint: 13.0°C ( 55°F) [RH = 64%]
Pressure (altimeter):30.18 inches Hg (1022.1 mb)
Winds:calm
Visibility:10 or more sm (16+ km)
Ceiling:at least 12,000 feet AGL
Clouds:sky clear below 12,000 feet AGL
QC Flag:automated observation with no human augmentation
Text:K6B9 201755Z AUTO 00000KT 10SM CLR 21/13 A3019 RMK AO2
Temperature: 21.0°C ( 70°F)
Dewpoint: 13.0°C ( 55°F) [RH = 60%]
Pressure (altimeter):30.19 inches Hg (1022.4 mb)
Winds:calm
Visibility:10 or more sm (16+ km)
Ceiling:at least 12,000 feet AGL
Clouds:sky clear below 12,000 feet AGL
QC Flag:automated observation with no human augmentation
Text:K6B9 201735Z AUTO 00000KT 10SM CLR 20/13 A3019 RMK AO2
Temperature: 20.0°C ( 68°F)
Dewpoint: 13.0°C ( 55°F) [RH = 64%]
Pressure (altimeter):30.19 inches Hg (1022.4 mb)
Winds:calm
Visibility:10 or more sm (16+ km)
Ceiling:at least 12,000 feet AGL
Clouds:sky clear below 12,000 feet AGL
QC Flag:automated observation with no human augmentation
Text:K6B9 201715Z AUTO 00000KT 10SM CLR 20/13 A3019 RMK AO2
Temperature: 20.0°C ( 68°F)
Dewpoint: 13.0°C ( 55°F) [RH = 64%]
Pressure (altimeter):30.19 inches Hg (1022.4 mb)
Winds:calm
Visibility:10 or more sm (16+ km)
Ceiling:at least 12,000 feet AGL
Clouds:sky clear below 12,000 feet AGL
QC Flag:automated observation with no human augmentation
Text:K6B9 201655Z AUTO VRB03KT 10SM CLR 19/12 A3020 RMK AO2
Temperature: 19.0°C ( 66°F)
Dewpoint: 12.0°C ( 54°F) [RH = 64%]
Pressure (altimeter):30.20 inches Hg (1022.8 mb)
Winds:variable direction winds at 3 MPH (3 knots; 1.5 m/s)
Visibility:10 or more sm (16+ km)
Ceiling:at least 12,000 feet AGL
Clouds:sky clear below 12,000 feet AGL
QC Flag:automated observation with no human augmentation
Text:K6B9 201635Z AUTO 20004KT 10SM CLR 19/13 A3021 RMK AO2
Temperature: 19.0°C ( 66°F)
Dewpoint: 13.0°C ( 55°F) [RH = 68%]
Pressure (altimeter):30.21 inches Hg (1023.1 mb)
Winds:from the SSW (200 degrees) at 5 MPH (4 knots; 2.1 m/s)
Visibility:10 or more sm (16+ km)
Ceiling:at least 12,000 feet AGL
Clouds:sky clear below 12,000 feet AGL
QC Flag:automated observation with no human augmentation